YOU ARE USING AN OUTDATED BROWSER
It is limiting your browsing experience. Please upgrade to a modern browser.

ZAKYNTHOS (Port)

Country: Greece Country: Greece (GR)
Latitude / Longitude: 37.78039° / 20.90346° Show on Map Show on Map
Local Time:  1490288353
Un/locode: GRZTH
Vessels in Port: 1
Expected Arrivals: 10

Recent Arrivals & Departures


Vessel Name
Arrival (UTC)
Arrival (LT)
Arrival (MT)
Arrival
Departure (UTC)
Departure (LT)
Departure (MT)
Departure
Vessel Type: Fishing  ELEFTHERIOS 1490261460 1490261460 1490261460 7 hours, 28 minutes ago 1490287380 1490294580 1490287380 16 minutes ago
Vessel Type: Passenger Vessels  MARE DI LEVANTE 1490282940 1490282940 1490282940 1 hour, 30 minutes ago 1490287200 1490294400 1490287200 19 minutes ago
Vessel Type: Passenger Vessels  ZAKYNTHOS I 1490282100 1490282100 1490282100 1 hour, 44 minutes ago 1490285160 1490292360 1490285160 53 minutes ago
Vessel Type: Passenger Vessels  FIOR DI LEVANTE 1490267340 1490267340 1490267340 5 hours, 50 minutes ago 1490272500 1490279700 1490272500 4 hours, 24 minutes ago
Vessel Type: Passenger Vessels  ZAKYNTHOS I 1490267580 1490267580 1490267580 5 hours, 46 minutes ago 1490270220 1490277420 1490270220 5 hours, 2 minutes ago
Vessel Type: Passenger Vessels  FIOR DI LEVANTE 1490250120 1490250120 1490250120 10 hours, 37 minutes ago 1490256540 1490263740 1490256540 8 hours, 50 minutes ago
Vessel Type: Passenger Vessels  ZAKYNTHOS I 1490250420 1490250420 1490250420 10 hours, 32 minutes ago 1490253720 1490260920 1490253720 9 hours, 37 minutes ago
Vessel Type: Passenger Vessels  ZAKYNTHOS I 1490210220 1490210220 1490210220 21 hours, 42 minutes ago 1490240580 1490247780 1490240580 13 hours, 16 minutes ago
Vessel Type: Passenger Vessels  FIOR DI LEVANTE 1490212140 1490212140 1490212140 21 hours, 10 minutes ago 1490240460 1490247660 1490240460 13 hours, 18 minutes ago
Vessel Type: Passenger Vessels  FIOR DI LEVANTE 1490196360 1490196360 1490196360 1 day, 1 hour ago 1490200800 1490208000 1490200800 1 day ago

Expected Arrivals


Vessel Name
Scheduled Arrival (UTC)
Scheduled Arrival (LT)
Scheduled Arrival (MT)
Scheduled Arrival
Estimated Arrival (UTC)
Estimated Arrival (LT)
Estimated Arrival (MT)
Estimated Arrival
Vessel Type: Passenger Vessels  FIOR DI LEVANTE 1490282100 1490289300 1490289300 1 hour, 44 minutes ago 1490292180 1490292180 1490292180 in 1 hour, 3 minutes
Vessel Type: Passenger Vessels  ZAKYNTHOS I 1490295600 1490302800 1490302800 in 2 hours 1490297340 1490297340 1490297340 in 2 hours, 29 minutes
Vessel Type: Passenger Vessels  FIOR DI LEVANTE 1490297400 1490304600 1490304600 in 2 hours, 30 minutes 1490374320 1490374320 1490374320 in 23 hours, 52 minutes
Vessel Type: Passenger Vessels  ZAKYNTHOS I 1490336100 1490343300 1490343300 in 13 hours, 15 minutes 1490336940 1490336940 1490336940 in 13 hours, 29 minutes
Vessel Type: Passenger Vessels  FIOR DI LEVANTE 1490336100 1490343300 1490343300 in 13 hours, 15 minutes 1490455980 1490455980 1490455980 in 1 day, 22 hours
Vessel Type: Passenger Vessels  FIOR DI LEVANTE 1490353200 1490360400 1490360400 in 18 hours 1490537340 1490537340 1490537340 in 2 days, 21 hours
Vessel Type: Passenger Vessels  ZAKYNTHOS I 1490353200 1490360400 1490360400 in 18 hours 1490361360 1490361360 1490361360 in 20 hours, 16 minutes
Vessel Type: Passenger Vessels  ZAKYNTHOS I 1490367600 1490374800 1490374800 in 22 hours 1490385720 1490385720 1490385720 in 1 day, 3 hours
Vessel Type: Passenger Vessels  FIOR DI LEVANTE 1490368500 1490375700 1490375700 in 22 hours, 15 minutes 1490619120 1490619120 1490619120 in 3 days, 19 hours
Vessel Type: Cargo Vessels  RUKIA II 1490875200 1490886000 1490886000 in 6 days, 19 hours 1490929560 1490929560 1490929560 in 7 days, 10 hours

Wind Forecast


    
Time (UTC)
Speed
Direction
Temperature
1490281200 4 knots 277° 17°C
1490292000 3 knots 338° 17°C
1490302800 3 knots 129° 16°C
1490313600 4 knots 97° 15°C
1490324400 5 knots 70° 15°C
1490335200 6 knots 71° 14°C
1490346000 3 knots 345° 15°C
1490356800 4 knots 336° 17°C
1490367600 5 knots 294° 17°C
1490378400 3 knots 300° 17°C
1490389200 2 knots 165° 16°C
1490400000 4 knots 140° 15°C
1490410800 3 knots 102° 15°C
1490421600 2 knots 86° 14°C
1490432400 4 knots 333° 15°C
1490443200 6 knots 308° 16°C
1490454000 8 knots 306° 17°C